Time;durP1;ratioP1;P1;durP2;ratioP2;P2;SDS_P1;SDS_P2;PMS_P1;PMS_P2;Temp;Humidity;BMP_temperature;BMP_pressure;BME280_temperature;BME280_humidity;BME280_pressure;Samples;Min_cycle;Max_cycle;Signal;HPM_P1;HPM_P2
2022/12/05 00:04:21;;;;;;;15.88;5.93;;;;;;;;;;10399709;28;20045;-74
2022/12/05 00:09:21;;;;;;;12.33;5.93;;;;;;;;;;10386250;28;20545;-78
2022/12/05 00:14:21;;;;;;;16.25;5.30;;;;;;;;;;10403454;28;20499;-74
2022/12/05 00:19:21;;;;;;;9.43;4.95;;;;;;;;;;10402776;28;20029;-74
2022/12/05 00:24:22;;;;;;;12.50;5.78;;;;;;;;;;10403632;28;20017;-76
2022/12/05 00:29:22;;;;;;;11.98;5.80;;;;;;;;;;10397016;28;20551;-73
2022/12/05 00:34:22;;;;;;;13.02;5.85;;;;;;;;;;10402377;28;20120;-75
2022/12/05 00:39:23;;;;;;;10.88;5.32;;;;;;;;;;10403089;28;20030;-74
2022/12/05 00:44:23;;;;;;;11.43;5.85;;;;;;;;;;10403005;28;20025;-73
2022/12/05 00:49:23;;;;;;;11.65;6.20;;;;;;;;;;10408827;28;20041;-73
2022/12/05 00:54:25;;;;;;;11.15;4.97;;;;;;;;;;10397513;28;20079;-73
2022/12/05 00:59:25;;;;;;;9.70;5.43;;;;;;;;;;10411454;28;20065;-76
2022/12/05 01:04:25;;;;;;;11.13;5.73;;;;;;;;;;10393794;28;20125;-75
2022/12/05 01:09:26;;;;;;;13.60;6.20;;;;;;;;;;10400051;28;20371;-74
2022/12/05 01:14:26;;;;;;;14.17;5.63;;;;;;;;;;10400154;28;20044;-74
2022/12/05 01:19:27;;;;;;;16.02;5.60;;;;;;;;;;10434530;22;20597;-73
2022/12/05 01:24:28;;;;;;;14.70;5.13;;;;;;;;;;10421856;28;20017;-79
2022/12/05 01:29:29;;;;;;;14.98;6.07;;;;;;;;;;10389110;28;20026;-76
2022/12/05 01:34:30;;;;;;;14.07;6.60;;;;;;;;;;10383366;28;20442;-78
2022/12/05 01:39:30;;;;;;;12.87;6.03;;;;;;;;;;10401451;28;20025;-78
2022/12/05 01:44:30;;;;;;;16.17;6.13;;;;;;;;;;10382490;28;20159;-77
2022/12/05 01:49:33;;;;;;;14.05;5.78;;;;;;;;;;10377394;28;20037;-78
2022/12/05 01:54:34;;;;;;;16.48;6.07;;;;;;;;;;10380651;28;20025;-77
2022/12/05 01:59:36;;;;;;;17.63;6.32;;;;;;;;;;10383118;28;20626;-75
2022/12/05 02:04:40;;;;;;;17.15;5.78;;;;;;;;;;10383291;28;20028;-78
2022/12/05 02:09:41;;;;;;;15.15;6.63;;;;;;;;;;10361671;28;20033;-74
2022/12/05 02:14:47;;;;;;;19.85;6.63;;;;;;;;;;10400309;28;20064;-80
2022/12/05 02:20:06;;;;;;;16.83;6.78;;;;;;;;;;10380908;28;20049;-73
2022/12/05 02:25:12;;;;;;;13.93;6.30;;;;;;;;;;10374281;28;20411;-78
2022/12/05 02:30:19;;;;;;;14.32;5.10;;;;;;;;;;10401625;28;20044;-78
2022/12/05 02:35:26;;;;;;;18.65;6.90;;;;;;;;;;10390874;28;20029;-74
2022/12/05 02:40:32;;;;;;;15.85;6.00;;;;;;;;;;10389820;28;20026;-77
2022/12/05 02:45:34;;;;;;;15.48;5.78;;;;;;;;;;10388289;28;20026;-75
2022/12/05 02:50:36;;;;;;;16.20;6.95;;;;;;;;;;10372934;28;20021;-79
2022/12/05 02:55:38;;;;;;;16.30;6.25;;;;;;;;;;10395698;28;20029;-75
2022/12/05 03:00:41;;;;;;;13.07;5.88;;;;;;;;;;10395682;28;20068;-75
2022/12/05 03:05:46;;;;;;;13.48;6.63;;;;;;;;;;10379923;28;20483;-79
2022/12/05 03:10:47;;;;;;;14.90;5.93;;;;;;;;;;10388966;28;20083;-79
2022/12/05 03:15:48;;;;;;;14.23;5.00;;;;;;;;;;10388481;28;20025;-73
2022/12/05 03:21:00;;;;;;;14.20;5.78;;;;;;;;;;10371329;28;20061;-75
2022/12/05 03:26:11;;;;;;;14.30;5.95;;;;;;;;;;10385372;28;20033;-75
2022/12/05 03:31:13;;;;;;;13.05;6.18;;;;;;;;;;10387419;28;20056;-72
2022/12/05 03:36:22;;;;;;;15.80;6.10;;;;;;;;;;10388103;28;20025;-73
2022/12/05 03:41:37;;;;;;;14.65;6.50;;;;;;;;;;10388012;28;20475;-77
2022/12/05 03:46:37;;;;;;;15.77;6.07;;;;;;;;;;10375106;28;20079;-81
2022/12/05 03:51:57;;;;;;;14.52;6.15;;;;;;;;;;10377049;28;20849;-73
2022/12/05 03:57:01;;;;;;;13.20;5.60;;;;;;;;;;10373217;28;20037;-73
2022/12/05 04:02:06;;;;;;;15.65;6.28;;;;;;;;;;10387256;28;20022;-73
2022/12/05 04:07:07;;;;;;;15.68;6.68;;;;;;;;;;10387018;28;20021;-74
2022/12/05 04:12:12;;;;;;;15.18;6.47;;;;;;;;;;10404470;28;20020;-74
2022/12/05 04:17:30;;;;;;;13.48;6.25;;;;;;;;;;10386381;28;20119;-73
2022/12/05 04:22:30;;;;;;;;;;;;;;;;;;10386230;28;20470;-78
2022/12/05 04:27:31;;;;;;;17.20;7.05;;;;;;;;;;10387673;28;20000;-78
2022/12/05 04:32:50;;;;;;;13.65;6.22;;;;;;;;;;10382747;28;20124;-78
2022/12/05 04:37:52;;;;;;;16.15;6.35;;;;;;;;;;10378457;28;20026;-74
2022/12/05 04:42:54;;;;;;;15.77;6.45;;;;;;;;;;10380569;28;20024;-73
2022/12/05 04:47:58;;;;;;;17.65;7.07;;;;;;;;;;10402414;28;20025;-79
2022/12/05 04:52:59;;;;;;;16.05;7.18;;;;;;;;;;10402411;28;20021;-80
2022/12/05 04:58:03;;;;;;;15.30;6.10;;;;;;;;;;10386089;28;20021;-75
2022/12/05 05:03:06;;;;;;;14.23;6.88;;;;;;;;;;10394107;28;20021;-72
2022/12/05 05:08:14;;;;;;;19.38;7.32;;;;;;;;;;10406383;28;20112;-75
2022/12/05 05:13:14;;;;;;;16.83;7.20;;;;;;;;;;10385756;28;20045;-74
2022/12/05 05:18:16;;;;;;;16.23;7.55;;;;;;;;;;10392813;28;20570;-74
2022/12/05 05:23:18;;;;;;;21.67;9.07;;;;;;;;;;10384905;28;20022;-79
2022/12/05 05:28:18;;;;;;;19.48;7.43;;;;;;;;;;10383871;28;20025;-75
2022/12/05 05:33:21;;;;;;;17.38;8.48;;;;;;;;;;10378136;28;20037;-75
2022/12/05 05:38:21;;;;;;;23.45;8.75;;;;;;;;;;10396674;28;20033;-75
2022/12/05 05:43:22;;;;;;;17.25;8.38;;;;;;;;;;10366973;28;20487;-80
2022/12/05 05:48:22;;;;;;;14.30;7.18;;;;;;;;;;10383465;28;20083;-74
2022/12/05 05:53:22;;;;;;;23.53;10.07;;;;;;;;;;10380850;28;20030;-75
2022/12/05 05:58:22;;;;;;;23.50;8.32;;;;;;;;;;10381975;28;20029;-79
2022/12/05 06:03:23;;;;;;;21.40;9.00;;;;;;;;;;10399738;28;20502;-75
2022/12/05 06:08:23;;;;;;;16.30;8.90;;;;;;;;;;10373597;28;20028;-75
2022/12/05 06:13:23;;;;;;;26.17;9.30;;;;;;;;;;10381089;28;20116;-73
2022/12/05 06:18:23;;;;;;;19.88;7.68;;;;;;;;;;10379393;28;20053;-79
2022/12/05 06:23:24;;;;;;;21.50;7.22;;;;;;;;;;10377535;28;20032;-74
2022/12/05 06:28:25;;;;;;;18.45;8.40;;;;;;;;;;10378850;28;20134;-76
2022/12/05 06:33:27;;;;;;;14.48;6.88;;;;;;;;;;10381259;28;20025;-75
2022/12/05 06:38:27;;;;;;;13.80;7.15;;;;;;;;;;10379653;28;20022;-77
2022/12/05 06:43:27;;;;;;;11.85;5.90;;;;;;;;;;10398911;28;20037;-73
2022/12/05 06:48:28;;;;;;;11.85;6.80;;;;;;;;;;10380011;28;20040;-80
2022/12/05 06:53:28;;;;;;;18.30;7.07;;;;;;;;;;10380409;28;20022;-75
2022/12/05 06:58:28;;;;;;;16.67;7.22;;;;;;;;;;10369174;28;20037;-79
2022/12/05 07:03:30;;;;;;;13.02;5.85;;;;;;;;;;10377965;28;20017;-78
2022/12/05 07:08:30;;;;;;;14.35;6.95;;;;;;;;;;10374208;28;20024;-73
2022/12/05 07:13:31;;;;;;;12.57;5.40;;;;;;;;;;10377208;28;20044;-79
2022/12/05 07:18:32;;;;;;;13.30;6.97;;;;;;;;;;10380557;28;20098;-73
2022/12/05 07:23:32;;;;;;;18.73;7.18;;;;;;;;;;10390711;28;20017;-75
2022/12/05 07:28:33;;;;;;;16.85;6.38;;;;;;;;;;10413956;28;20032;-72
2022/12/05 07:33:34;;;;;;;16.70;5.85;;;;;;;;;;10416331;28;20433;-76
2022/12/05 07:38:35;;;;;;;10.55;4.78;;;;;;;;;;10388608;28;20021;-76
2022/12/05 07:43:35;;;;;;;11.55;5.63;;;;;;;;;;10386136;28;20021;-78
2022/12/05 07:48:37;;;;;;;13.50;5.18;;;;;;;;;;10381181;28;20137;-80
2022/12/05 07:53:37;;;;;;;9.32;5.40;;;;;;;;;;10382392;28;20491;-77
2022/12/05 07:58:38;;;;;;;11.20;5.82;;;;;;;;;;10384383;28;20018;-71
2022/12/05 08:03:38;;;;;;;10.00;5.75;;;;;;;;;;10374958;28;20024;-73
2022/12/05 08:08:39;;;;;;;12.90;5.63;;;;;;;;;;10376315;28;20021;-75
2022/12/05 08:13:41;;;;;;;10.13;4.80;;;;;;;;;;10377951;28;20631;-78
2022/12/05 08:18:41;;;;;;;14.65;5.82;;;;;;;;;;10376507;28;20069;-76
2022/12/05 08:23:42;;;;;;;11.70;5.60;;;;;;;;;;10379247;28;20025;-74
2022/12/05 08:28:43;;;;;;;9.63;5.10;;;;;;;;;;10375012;28;20106;-76
2022/12/05 08:33:43;;;;;;;10.98;3.80;;;;;;;;;;10377004;28;20021;-73
2022/12/05 08:38:45;;;;;;;7.75;4.65;;;;;;;;;;10395301;28;20025;-77
2022/12/05 08:43:45;;;;;;;7.28;4.30;;;;;;;;;;10399807;28;20411;-77
2022/12/05 08:48:46;;;;;;;6.90;3.30;;;;;;;;;;10380418;28;20052;-77
2022/12/05 08:53:46;;;;;;;10.52;4.28;;;;;;;;;;10399068;28;20036;-77
2022/12/05 08:58:46;;;;;;;10.45;5.25;;;;;;;;;;10377812;28;20026;-76
2022/12/05 09:03:47;;;;;;;12.75;5.95;;;;;;;;;;10380498;28;20020;-73
2022/12/05 09:08:47;;;;;;;12.70;6.28;;;;;;;;;;10398444;28;20033;-77
2022/12/05 09:13:48;;;;;;;19.23;8.00;;;;;;;;;;10379084;28;20427;-77
2022/12/05 09:18:50;;;;;;;29.35;8.10;;;;;;;;;;10395263;28;20061;-78
2022/12/05 09:23:50;;;;;;;19.13;6.72;;;;;;;;;;10378690;28;20522;-78
2022/12/05 09:28:50;;;;;;;15.93;6.57;;;;;;;;;;10380389;28;20029;-76
2022/12/05 09:33:51;;;;;;;8.40;4.95;;;;;;;;;;10394834;28;20072;-76
2022/12/05 09:38:52;;;;;;;8.43;4.13;;;;;;;;;;10375609;28;20572;-73
2022/12/05 09:43:59;;;;;;;9.43;5.03;;;;;;;;;;10356754;28;20018;-72
2022/12/05 09:49:01;;;;;;;10.05;4.38;;;;;;;;;;10380522;28;20029;-74
2022/12/05 09:54:01;;;;;;;9.43;4.85;;;;;;;;;;10374601;28;20025;-72
2022/12/05 09:59:02;;;;;;;7.67;4.23;;;;;;;;;;10404459;28;20029;-72
2022/12/05 10:04:16;;;;;;;11.33;5.17;;;;;;;;;;10370191;28;20291;-73
2022/12/05 10:09:16;;;;;;;9.73;4.75;;;;;;;;;;10380705;28;20474;-75
2022/12/05 10:14:25;;;;;;;8.30;4.63;;;;;;;;;;10381978;28;20037;-81
2022/12/05 10:19:29;;;;;;;10.10;4.38;;;;;;;;;;10381772;28;20072;-74
2022/12/05 10:24:40;;;;;;;10.70;5.28;;;;;;;;;;10364131;28;20025;-75
2022/12/05 10:30:02;;;;;;;8.20;4.50;;;;;;;;;;10381447;28;20399;-73
2022/12/05 10:35:19;;;;;;;9.10;4.00;;;;;;;;;;10366067;28;20014;-73
2022/12/05 10:40:20;;;;;;;7.95;4.72;;;;;;;;;;10394608;28;20099;-75
2022/12/05 10:45:22;;;;;;;9.75;5.20;;;;;;;;;;10371095;28;20091;-75
2022/12/05 10:50:22;;;;;;;12.63;6.32;;;;;;;;;;10386727;28;20573;-74
2022/12/05 10:55:24;;;;;;;10.60;4.80;;;;;;;;;;10375639;28;20108;-78
2022/12/05 11:00:29;;;;;;;7.80;3.88;;;;;;;;;;10389733;28;20026;-72
2022/12/05 11:05:30;;;;;;;8.32;4.85;;;;;;;;;;10370681;28;20495;-74
2022/12/05 11:10:31;;;;;;;8.18;4.15;;;;;;;;;;10406455;28;20021;-78
2022/12/05 11:15:32;;;;;;;10.25;5.35;;;;;;;;;;10388026;28;20411;-72
2022/12/05 11:20:34;;;;;;;10.13;4.60;;;;;;;;;;10380474;28;20129;-77
2022/12/05 11:25:35;;;;;;;11.50;5.20;;;;;;;;;;10383030;28;20029;-73
2022/12/05 11:30:35;;;;;;;14.02;5.70;;;;;;;;;;10405185;28;20130;-73
2022/12/05 11:35:36;;;;;;;15.55;7.30;;;;;;;;;;10388264;28;20464;-77
2022/12/05 11:40:49;;;;;;;13.27;6.40;;;;;;;;;;10385991;28;20056;-80
2022/12/05 11:46:08;;;;;;;10.73;5.55;;;;;;;;;;10384781;28;20029;-79
2022/12/05 11:51:08;;;;;;;19.75;5.47;;;;;;;;;;10399365;28;20294;-78
2022/12/05 11:56:12;;;;;;;14.90;6.53;;;;;;;;;;10381969;28;20777;-79
2022/12/05 12:01:31;;;;;;;13.40;6.35;;;;;;;;;;10381667;28;20072;-77
2022/12/05 12:06:37;;;;;;;17.25;5.90;;;;;;;;;;10384274;28;20029;-74
2022/12/05 12:11:38;;;;;;;13.85;7.18;;;;;;;;;;10401528;28;20069;-72
2022/12/05 12:16:38;;;;;;;14.68;7.18;;;;;;;;;;10402048;28;20029;-74
2022/12/05 12:21:39;;;;;;;14.77;7.47;;;;;;;;;;10404255;28;20619;-76
2022/12/05 12:26:52;;;;;;;12.65;6.80;;;;;;;;;;10383882;28;20546;-75
2022/12/05 12:31:53;;;;;;;17.48;8.10;;;;;;;;;;10385756;28;20020;-75
2022/12/05 12:37:14;;;;;;;19.55;8.77;;;;;;;;;;10381193;28;20021;-78
2022/12/05 12:42:14;;;;;;;23.02;8.75;;;;;;;;;;10399090;28;20124;-80
2022/12/05 12:47:17;;;;;;;18.33;8.98;;;;;;;;;;10381129;28;20032;-73
2022/12/05 12:52:20;;;;;;;21.52;9.13;;;;;;;;;;10400589;28;20064;-79
2022/12/05 12:57:30;;;;;;;23.98;9.45;;;;;;;;;;10382139;28;20121;-73
2022/12/05 13:02:36;;;;;;;21.05;9.00;;;;;;;;;;10381312;28;20488;-74
2022/12/05 13:07:43;;;;;;;19.05;9.27;;;;;;;;;;10381413;28;20033;-73
2022/12/05 13:12:44;;;;;;;19.73;9.15;;;;;;;;;;10379890;28;20029;-74
2022/12/05 13:17:46;;;;;;;26.63;9.55;;;;;;;;;;10382884;28;20489;-77
2022/12/05 13:22:48;;;;;;;30.48;12.38;;;;;;;;;;10367475;28;20056;-75
2022/12/05 13:27:56;;;;;;;20.20;9.82;;;;;;;;;;10382769;28;20052;-73
2022/12/05 13:32:58;;;;;;;20.75;9.68;;;;;;;;;;10383396;28;20052;-74
2022/12/05 13:43:19;;;;;;;25.65;11.70;;;;;;;;;;10398370;28;20471;-73
2022/12/05 13:48:21;;;;;;;20.70;11.00;;;;;;;;;;10401009;28;20090;-75
2022/12/05 13:53:24;;;;;;;26.25;11.45;;;;;;;;;;10409063;22;20355;-72
2022/12/05 13:58:25;;;;;;;29.42;12.55;;;;;;;;;;10432572;28;20414;-74
2022/12/05 14:03:31;;;;;;;23.63;10.65;;;;;;;;;;10440924;28;20033;-75
2022/12/05 14:08:38;;;;;;;30.83;12.43;;;;;;;;;;10465101;28;20031;-73
2022/12/05 14:13:40;;;;;;;30.10;11.02;;;;;;;;;;10467796;28;20107;-77
2022/12/05 14:18:44;;;;;;;28.50;12.32;;;;;;;;;;10437587;28;20082;-77
2022/12/05 14:23:49;;;;;;;32.60;12.90;;;;;;;;;;10462034;28;20486;-75
2022/12/05 14:28:58;;;;;;;27.90;13.07;;;;;;;;;;10454459;28;20029;-74
2022/12/05 14:34:22;;;;;;;26.92;13.13;;;;;;;;;;10456676;28;20032;-76
2022/12/05 14:39:34;;;;;;;31.13;12.07;;;;;;;;;;10485031;28;20029;-73
2022/12/05 14:44:34;;;;;;;28.45;12.77;;;;;;;;;;10449200;28;20513;-78
2022/12/05 14:49:50;;;;;;;38.75;13.65;;;;;;;;;;10468574;28;20013;-76
2022/12/05 14:54:51;;;;;;;36.85;13.40;;;;;;;;;;10472750;28;20437;-77
2022/12/05 14:59:57;;;;;;;28.70;12.32;;;;;;;;;;10453667;28;20055;-74
2022/12/05 15:04:57;;;;;;;30.17;12.40;;;;;;;;;;10480557;28;20040;-72
2022/12/05 15:10:04;;;;;;;31.77;11.30;;;;;;;;;;10454547;28;20491;-77
2022/12/05 15:15:23;;;;;;;27.80;13.00;;;;;;;;;;10475695;28;20017;-76
2022/12/05 15:20:33;;;;;;;27.55;13.02;;;;;;;;;;10472357;28;20024;-74
2022/12/05 15:25:34;;;;;;;25.88;11.85;;;;;;;;;;10448964;28;20029;-77
2022/12/05 15:30:36;;;;;;;32.03;13.55;;;;;;;;;;10453945;28;20530;-75
2022/12/05 15:35:37;;;;;;;34.72;13.57;;;;;;;;;;10473548;28;20031;-76
2022/12/05 15:40:37;;;;;;;27.83;13.30;;;;;;;;;;10453704;28;20024;-74
2022/12/05 15:45:37;;;;;;;26.40;12.40;;;;;;;;;;10472920;28;20025;-73
2022/12/05 15:50:42;;;;;;;22.73;10.93;;;;;;;;;;10470142;28;20029;-76
2022/12/05 15:55:47;;;;;;;34.25;11.82;;;;;;;;;;10454369;28;20045;-79
2022/12/05 16:00:49;;;;;;;26.35;11.95;;;;;;;;;;10454723;28;20031;-72
2022/12/05 16:05:53;;;;;;;26.92;13.13;;;;;;;;;;10452978;28;20060;-77
2022/12/05 16:10:55;;;;;;;30.92;13.95;;;;;;;;;;10450020;28;20029;-79
2022/12/05 16:15:55;;;;;;;34.67;14.55;;;;;;;;;;10449353;28;20418;-76
2022/12/05 16:20:56;;;;;;;32.83;13.65;;;;;;;;;;10471548;28;20025;-77
2022/12/05 16:26:11;;;;;;;25.17;12.85;;;;;;;;;;10468345;28;20039;-75
2022/12/05 16:31:16;;;;;;;25.23;10.45;;;;;;;;;;10440584;28;20112;-74
2022/12/05 16:36:17;;;;;;;30.85;10.93;;;;;;;;;;10445873;28;20016;-77
2022/12/05 16:41:17;;;;;;;22.15;9.52;;;;;;;;;;10448923;28;20024;-73
2022/12/05 16:46:37;;;;;;;28.10;11.00;;;;;;;;;;10447282;28;20021;-75
2022/12/05 16:51:43;;;;;;;28.13;11.32;;;;;;;;;;10386236;28;20069;-74
2022/12/05 16:56:43;;;;;;;32.60;13.07;;;;;;;;;;10400275;28;20053;-76
2022/12/05 17:01:43;;;;;;;31.52;14.32;;;;;;;;;;10407943;28;20025;-74
2022/12/05 17:06:44;;;;;;;42.58;15.77;;;;;;;;;;10377569;28;20034;-71
2022/12/05 17:11:45;;;;;;;30.30;13.48;;;;;;;;;;10390114;28;20056;-76
2022/12/05 17:16:45;;;;;;;34.60;16.30;;;;;;;;;;10385941;28;20029;-76
2022/12/05 17:21:45;;;;;;;36.50;15.70;;;;;;;;;;10425549;28;20587;-78
2022/12/05 17:26:46;;;;;;;30.08;13.73;;;;;;;;;;10446754;28;20020;-74
2022/12/05 17:31:46;;;;;;;40.95;16.48;;;;;;;;;;10451221;28;20056;-72
2022/12/05 17:36:46;;;;;;;39.97;16.47;;;;;;;;;;10440578;28;20383;-76
2022/12/05 17:41:47;;;;;;;37.50;15.07;;;;;;;;;;10459478;28;20458;-76
2022/12/05 17:46:48;;;;;;;30.00;14.55;;;;;;;;;;10433612;28;20045;-77
2022/12/05 17:51:52;;;;;;;28.30;12.93;;;;;;;;;;10464527;28;20028;-70
2022/12/05 17:56:54;;;;;;;26.02;12.77;;;;;;;;;;10419148;28;20618;-77
2022/12/05 18:01:54;;;;;;;24.45;11.90;;;;;;;;;;10423488;28;20033;-77
2022/12/05 18:06:54;;;;;;;30.17;13.10;;;;;;;;;;10420324;28;20032;-77
2022/12/05 18:11:55;;;;;;;43.05;15.27;;;;;;;;;;10420036;28;20018;-78
2022/12/05 18:16:56;;;;;;;27.67;12.25;;;;;;;;;;10423460;28;20693;-75
2022/12/05 18:21:57;;;;;;;28.48;13.05;;;;;;;;;;10421676;28;20025;-73
2022/12/05 18:26:57;;;;;;;28.80;12.30;;;;;;;;;;10416185;28;20061;-71
2022/12/05 18:31:57;;;;;;;30.30;13.17;;;;;;;;;;10418616;28;20529;-74
2022/12/05 18:36:57;;;;;;;34.83;13.05;;;;;;;;;;10419619;28;20283;-76
2022/12/05 18:41:58;;;;;;;26.35;11.70;;;;;;;;;;10420519;28;20119;-73
2022/12/05 18:46:58;;;;;;;29.10;12.93;;;;;;;;;;10423417;28;20566;-75
2022/12/05 18:51:58;;;;;;;27.20;12.35;;;;;;;;;;10422220;28;20052;-73
2022/12/05 18:56:58;;;;;;;25.35;12.00;;;;;;;;;;10450494;28;20403;-71
2022/12/05 19:01:59;;;;;;;26.55;11.45;;;;;;;;;;10442970;28;20118;-71
2022/12/05 19:07:00;;;;;;;26.70;11.47;;;;;;;;;;10461944;28;20036;-72
2022/12/05 19:12:01;;;;;;;26.35;11.20;;;;;;;;;;10441194;28;20136;-75
2022/12/05 19:17:01;;;;;;;19.27;9.63;;;;;;;;;;10464749;28;20343;-72
2022/12/05 19:22:01;;;;;;;15.60;8.95;;;;;;;;;;10476737;28;20426;-72
2022/12/05 19:27:01;;;;;;;22.65;8.77;;;;;;;;;;10477272;28;20468;-75
2022/12/05 19:32:02;;;;;;;17.92;8.38;;;;;;;;;;10451905;28;20036;-76
2022/12/05 19:37:02;;;;;;;16.83;8.88;;;;;;;;;;10474114;28;20551;-72
2022/12/05 19:42:02;;;;;;;25.15;9.93;;;;;;;;;;10444109;28;20382;-74
2022/12/05 19:47:02;;;;;;;19.17;10.00;;;;;;;;;;10454092;28;20024;-71
2022/12/05 19:52:03;;;;;;;24.42;10.15;;;;;;;;;;10449893;28;20028;-81
2022/12/05 19:57:03;;;;;;;19.63;9.33;;;;;;;;;;10454436;28;20083;-70
2022/12/05 20:02:03;;;;;;;21.15;10.02;;;;;;;;;;10448954;28;20033;-76
2022/12/05 20:07:03;;;;;;;21.73;10.52;;;;;;;;;;10450982;28;20422;-76
2022/12/05 20:12:04;;;;;;;26.15;11.73;;;;;;;;;;10449312;28;20025;-74
2022/12/05 20:17:04;;;;;;;25.02;10.45;;;;;;;;;;10452256;28;20032;-76
2022/12/05 20:22:04;;;;;;;26.57;10.47;;;;;;;;;;10467363;28;20029;-76
2022/12/05 20:27:06;;;;;;;17.50;8.75;;;;;;;;;;10467089;28;20031;-76
2022/12/05 20:32:06;;;;;;;21.98;9.18;;;;;;;;;;10470882;28;20082;-72
2022/12/05 20:37:06;;;;;;;15.88;8.65;;;;;;;;;;10453907;28;20059;-75
2022/12/05 20:42:06;;;;;;;18.27;7.93;;;;;;;;;;10452031;28;20032;-74
2022/12/05 20:47:07;;;;;;;18.48;8.73;;;;;;;;;;10444761;28;20033;-73
2022/12/05 20:52:10;;;;;;;25.85;11.82;;;;;;;;;;10447112;28;20304;-76
2022/12/05 20:57:10;;;;;;;22.40;11.57;;;;;;;;;;10450531;28;20061;-74
2022/12/05 21:02:12;;;;;;;26.10;10.43;;;;;;;;;;10450161;28;20096;-80
2022/12/05 21:07:12;;;;;;;22.77;10.52;;;;;;;;;;10469926;28;20274;-77
2022/12/05 21:12:12;;;;;;;24.90;11.50;;;;;;;;;;10448683;28;20341;-78
2022/12/05 21:17:13;;;;;;;19.08;9.38;;;;;;;;;;10454531;28;20129;-77
2022/12/05 21:22:13;;;;;;;16.57;8.53;;;;;;;;;;10486024;28;20029;-75
2022/12/05 21:27:13;;;;;;;16.25;7.65;;;;;;;;;;10465842;28;20124;-72
2022/12/05 21:32:15;;;;;;;15.50;8.03;;;;;;;;;;10463648;28;20919;-77
2022/12/05 21:37:15;;;;;;;17.95;8.63;;;;;;;;;;10451108;28;20024;-79
2022/12/05 21:42:15;;;;;;;15.93;7.72;;;;;;;;;;10466353;28;20479;-77
2022/12/05 21:47:16;;;;;;;12.75;6.13;;;;;;;;;;10432586;28;20495;-77
2022/12/05 21:52:17;;;;;;;18.17;7.75;;;;;;;;;;10450587;28;20048;-77
2022/12/05 21:57:17;;;;;;;16.65;6.90;;;;;;;;;;10421771;28;20075;-77
2022/12/05 22:02:17;;;;;;;17.57;6.83;;;;;;;;;;10423978;28;20115;-73
2022/12/05 22:07:17;;;;;;;16.02;7.50;;;;;;;;;;10420261;28;20399;-78
2022/12/05 22:12:18;;;;;;;13.98;7.65;;;;;;;;;;10414172;28;20127;-73
2022/12/05 22:17:18;;;;;;;14.90;7.05;;;;;;;;;;10423798;28;20024;-73
2022/12/05 22:22:18;;;;;;;15.90;6.93;;;;;;;;;;10418862;28;20055;-74
2022/12/05 22:27:18;;;;;;;12.05;6.25;;;;;;;;;;10419242;28;20029;-74
2022/12/05 22:32:19;;;;;;;16.80;6.15;;;;;;;;;;10418746;28;20035;-73
2022/12/05 22:37:19;;;;;;;9.10;4.53;;;;;;;;;;10420211;28;20026;-75
2022/12/05 22:42:19;;;;;;;12.18;6.50;;;;;;;;;;10424456;28;20021;-77
2022/12/05 22:47:19;;;;;;;12.25;6.30;;;;;;;;;;10419063;28;20017;-78
2022/12/05 22:52:20;;;;;;;16.73;6.95;;;;;;;;;;10426921;28;20115;-74
2022/12/05 22:57:21;;;;;;;13.63;6.55;;;;;;;;;;10428126;28;20445;-76
2022/12/05 23:02:22;;;;;;;14.85;7.40;;;;;;;;;;10427497;28;20044;-73
2022/12/05 23:07:22;;;;;;;14.27;6.63;;;;;;;;;;10427157;28;20036;-76
2022/12/05 23:12:23;;;;;;;11.95;5.55;;;;;;;;;;10432177;28;20638;-78
2022/12/05 23:17:23;;;;;;;8.85;4.38;;;;;;;;;;10430209;28;20075;-76
2022/12/05 23:22:23;;;;;;;11.50;5.60;;;;;;;;;;10428248;28;20079;-76
2022/12/05 23:27:24;;;;;;;13.10;5.45;;;;;;;;;;10427950;28;20538;-77
2022/12/05 23:32:24;;;;;;;13.45;5.90;;;;;;;;;;10448435;28;20430;-72
2022/12/05 23:37:24;;;;;;;10.95;4.68;;;;;;;;;;10449754;28;20479;-73
2022/12/05 23:42:25;;;;;;;15.77;5.97;;;;;;;;;;10437285;28;20049;-72
2022/12/05 23:47:25;;;;;;;14.43;5.85;;;;;;;;;;10435697;28;20025;-77
2022/12/05 23:52:26;;;;;;;13.47;5.50;;;;;;;;;;10404127;28;20022;-73
2022/12/05 23:57:26;;;;;;;12.73;6.78;;;;;;;;;;10427386;28;20739;-73
